Time;durP1;ratioP1;P1;durP2;ratioP2;P2;SDS_P1;SDS_P2;PMS_P1;PMS_P2;Temp;Humidity;BMP_temperature;BMP_pressure;BME280_temperature;BME280_humidity;BME280_pressure;Samples;Min_cycle;Max_cycle;Signal;HPM_P1;HPM_P2
2022/01/28 00:01:26;;;;;;;13.25;5.88;;;-1.90;99.90;;;;;;5114988;28;20024;-79
2022/01/28 00:04:00;;;;;;;13.15;7.45;;;-1.90;99.90;;;;;;5114353;28;20043;-80
2022/01/28 00:06:26;;;;;;;15.27;7.85;;;-1.80;99.90;;;;;;5114782;28;20140;-80
2022/01/28 00:08:52;;;;;;;11.60;6.60;;;-1.80;99.90;;;;;;5113953;28;20028;-80
2022/01/28 00:11:17;;;;;;;10.20;5.90;;;-1.80;99.90;;;;;;5110071;28;20028;-79
2022/01/28 00:13:49;;;;;;;12.27;6.15;;;-1.80;99.90;;;;;;5093677;28;20039;-80
2022/01/28 00:40:24;;;;;;;15.32;6.47;;;-1.40;99.90;;;;;;5113771;28;20404;-80
2022/01/28 00:42:49;;;;;;;10.70;6.07;;;-1.40;99.90;;;;;;5114355;28;20032;-80
2022/01/28 00:45:15;;;;;;;8.98;5.53;;;-1.40;99.90;;;;;;5113836;28;20039;-80
2022/01/28 00:47:41;;;;;;;9.60;5.70;;;-1.40;99.90;;;;;;5114700;28;20102;-80
2022/01/28 00:50:07;;;;;;;12.27;6.38;;;-1.40;99.90;;;;;;5113253;28;20036;-80
2022/01/28 00:52:33;;;;;;;13.48;5.45;;;-1.40;99.90;;;;;;5114867;28;20024;-79
2022/01/28 00:54:59;;;;;;;11.10;6.00;;;-1.40;99.90;;;;;;5113826;28;20543;-80
2022/01/28 00:57:24;;;;;;;12.45;6.55;;;-1.40;99.90;;;;;;5114190;28;20091;-80
2022/01/28 00:59:50;;;;;;;15.35;6.88;;;-1.40;99.90;;;;;;5114041;28;20044;-80
2022/01/28 01:02:16;;;;;;;12.85;6.80;;;-1.40;99.90;;;;;;5110346;28;20042;-80
2022/01/28 01:04:42;;;;;;;12.82;6.57;;;-1.30;99.90;;;;;;5102380;28;20085;-79
2022/01/28 01:07:08;;;;;;;11.55;5.75;;;-1.30;99.90;;;;;;5097388;28;20024;-80
2022/01/28 01:09:35;;;;;;;12.85;6.20;;;-1.30;99.90;;;;;;5100046;28;20070;-80
2022/01/28 01:12:01;;;;;;;11.95;6.35;;;-1.20;99.90;;;;;;5084063;28;20476;-80
2022/01/28 01:14:26;;;;;;;12.55;6.55;;;-1.20;99.90;;;;;;5095889;28;20111;-80
2022/01/28 01:19:27;;;;;;;11.73;6.97;;;-1.10;99.90;;;;;;5114169;28;20032;-80
2022/01/28 01:21:57;;;;;;;12.07;5.95;;;-1.00;99.90;;;;;;5114084;28;20035;-81
2022/01/28 01:24:25;;;;;;;9.98;4.95;;;-1.00;99.90;;;;;;5110207;28;20046;-80
2022/01/28 01:26:51;;;;;;;9.07;4.45;;;-0.80;99.90;;;;;;5117886;28;20020;-81
2022/01/28 01:29:19;;;;;;;9.40;4.35;;;-0.60;99.90;;;;;;5117774;28;20031;-80
2022/01/28 01:31:47;;;;;;;6.22;3.42;;;-0.50;99.90;;;;;;5117440;28;20032;-81
2022/01/28 01:34:20;;;;;;;5.10;2.72;;;-0.40;99.90;;;;;;5117785;28;20062;-81
2022/01/28 01:36:46;;;;;;;5.55;2.58;;;-0.30;99.90;;;;;;5095422;28;20089;-81
2022/01/28 01:39:22;;;;;;;6.05;3.17;;;-0.20;99.90;;;;;;5097541;28;20036;-82
2022/01/28 01:41:56;;;;;;;5.90;3.00;;;-0.10;99.90;;;;;;5117894;28;20031;-82
2022/01/28 01:45:14;;;;;;;4.40;2.25;;;-0.10;99.90;;;;;;5096126;28;20483;-82
2022/01/28 01:52:55;;;;;;;3.65;1.73;;;0.10;99.90;;;;;;5117043;28;20055;-82
2022/01/28 01:55:21;;;;;;;2.55;1.00;;;0.10;99.90;;;;;;5116620;28;20044;-81
2022/01/28 01:57:47;;;;;;;2.03;1.15;;;0.10;99.90;;;;;;5116382;28;20441;-81
2022/01/28 02:00:15;;;;;;;2.58;1.10;;;0.10;99.90;;;;;;5116481;28;20028;-81
2022/01/28 02:02:41;;;;;;;2.70;1.27;;;0.10;99.90;;;;;;5097772;28;20039;-81
2022/01/28 02:05:07;;;;;;;2.78;1.30;;;0.10;99.90;;;;;;5116178;28;20193;-81
2022/01/28 02:07:34;;;;;;;5.57;1.75;;;0.00;99.90;;;;;;5115997;28;20028;-81
2022/01/28 02:09:59;;;;;;;2.75;1.60;;;0.00;99.90;;;;;;5097757;28;20028;-81
2022/01/28 02:12:25;;;;;;;3.55;1.40;;;0.00;99.90;;;;;;5116138;28;20028;-81
2022/01/28 02:14:51;;;;;;;3.72;1.80;;;0.00;99.90;;;;;;5115848;28;20106;-81
2022/01/28 02:17:16;;;;;;;2.78;1.40;;;0.00;99.90;;;;;;5097765;28;20077;-80
2022/01/28 02:19:42;;;;;;;3.85;1.45;;;0.00;99.90;;;;;;5115658;28;20036;-81
2022/01/28 02:22:09;;;;;;;3.17;1.70;;;0.00;99.90;;;;;;5115871;28;20055;-81
2022/01/28 02:24:41;;;;;;;3.60;1.42;;;0.00;99.90;;;;;;5115992;28;20039;-81
2022/01/28 02:27:09;;;;;;;4.45;2.00;;;0.20;99.90;;;;;;5115775;28;20051;-81
2022/01/28 02:29:36;;;;;;;5.25;2.60;;;0.20;99.90;;;;;;5115924;28;20747;-81
2022/01/28 02:32:04;;;;;;;4.53;1.52;;;0.20;99.90;;;;;;5115631;28;20032;-81
2022/01/28 02:34:30;;;;;;;4.10;1.70;;;0.10;99.90;;;;;;5115137;28;20519;-81
2022/01/28 02:36:56;;;;;;;2.95;1.90;;;0.10;99.90;;;;;;5114370;28;20031;-81
2022/01/28 02:39:22;;;;;;;3.85;1.80;;;0.10;99.90;;;;;;5115245;28;20032;-80
2022/01/28 02:41:52;;;;;;;4.97;2.20;;;0.10;99.90;;;;;;5115728;28;20040;-81
2022/01/28 02:46:56;;;;;;;1.77;0.98;;;0.20;99.90;;;;;;5115350;28;20027;-80
2022/01/28 02:49:26;;;;;;;1.73;0.77;;;0.30;99.90;;;;;;5114776;28;20028;-80
2022/01/28 02:51:53;;;;;;;1.45;0.73;;;0.30;99.90;;;;;;5093658;28;20086;-80
2022/01/28 02:54:19;;;;;;;1.70;0.85;;;0.30;99.90;;;;;;5076659;28;20032;-81
2022/01/28 02:56:50;;;;;;;3.08;1.67;;;0.30;99.90;;;;;;5103013;28;20502;-81
2022/01/28 02:59:16;;;;;;;3.13;1.50;;;0.30;99.90;;;;;;5114847;28;20055;-80
2022/01/28 03:01:42;;;;;;;4.43;1.70;;;0.20;99.90;;;;;;5115340;28;20388;-80
2022/01/28 03:04:10;;;;;;;3.90;1.70;;;0.20;99.90;;;;;;5114621;28;20035;-80
2022/01/28 03:06:36;;;;;;;2.72;1.35;;;0.20;99.90;;;;;;5093074;28;20035;-80
2022/01/28 03:09:13;;;;;;;2.55;1.30;;;0.20;99.90;;;;;;5098210;28;20479;-80
2022/01/28 03:14:54;;;;;;;2.28;1.08;;;0.30;99.90;;;;;;5114829;28;20109;-80
2022/01/28 03:17:13;;;;;;;1.38;0.90;;;0.30;99.90;;;;;;5110664;28;20034;-80
2022/01/28 03:19:50;;;;;;;4.38;0.90;;;0.40;99.90;;;;;;5115098;28;20028;-81
2022/01/28 03:22:15;;;;;;;1.67;0.80;;;0.40;99.90;;;;;;5114594;28;20054;-80
2022/01/28 03:24:42;;;;;;;1.52;0.77;;;0.40;99.90;;;;;;5114850;28;20110;-81
2022/01/28 03:27:15;;;;;;;1.48;0.77;;;0.40;99.90;;;;;;5115366;28;20034;-81
2022/01/28 03:29:41;;;;;;;4.50;2.15;;;0.50;99.90;;;;;;5114560;28;20479;-81
2022/01/28 03:32:07;;;;;;;3.33;1.33;;;0.50;99.90;;;;;;5114115;28;20039;-80
2022/01/28 03:34:32;;;;;;;3.55;1.55;;;0.40;99.90;;;;;;5096110;28;20454;-81
2022/01/28 03:36:58;;;;;;;3.38;1.27;;;0.40;99.90;;;;;;5114124;28;20510;-81
2022/01/28 03:39:24;;;;;;;3.15;0.88;;;0.40;99.90;;;;;;5114118;28;20023;-81
2022/01/28 03:41:49;;;;;;;2.80;1.17;;;0.40;99.90;;;;;;5114332;28;20043;-81
2022/01/28 03:44:15;;;;;;;3.10;1.23;;;0.40;99.90;;;;;;5113818;28;20042;-81
2022/01/28 03:46:41;;;;;;;7.30;2.03;;;0.40;99.90;;;;;;5080731;28;20028;-80
2022/01/28 03:49:09;;;;;;;5.55;1.92;;;0.40;99.90;;;;;;5113009;28;20047;-81
2022/01/28 03:51:34;;;;;;;4.75;1.58;;;0.40;99.90;;;;;;5114297;28;20023;-81
2022/01/28 03:54:00;;;;;;;3.85;1.50;;;0.40;99.90;;;;;;5113979;28;20028;-82
2022/01/28 03:56:26;;;;;;;2.65;1.00;;;0.40;99.90;;;;;;5114038;28;20032;-82
2022/01/28 03:58:52;;;;;;;2.38;0.80;;;0.50;99.90;;;;;;5114190;28;20399;-82
2022/01/28 04:01:24;;;;;;;1.90;0.90;;;0.50;99.90;;;;;;5113637;28;20031;-81
2022/01/28 04:11:50;;;;;;;3.10;0.88;;;0.70;99.90;;;;;;5113367;28;20118;-81
2022/01/28 04:19:32;;;;;;;1.98;0.80;;;0.60;99.90;;;;;;5098848;28;20054;-82
2022/01/28 04:21:58;;;;;;;1.88;0.70;;;0.60;99.90;;;;;;5113458;28;20027;-81
2022/01/28 04:24:23;;;;;;;1.27;0.70;;;0.60;99.90;;;;;;5113446;28;20032;-81
2022/01/28 04:26:50;;;;;;;1.65;0.68;;;0.70;99.90;;;;;;5112080;28;20032;-82
2022/01/28 04:29:15;;;;;;;1.73;0.77;;;0.70;99.90;;;;;;5113523;28;20081;-82
2022/01/28 04:31:45;;;;;;;2.97;0.98;;;0.80;99.90;;;;;;5113603;28;20365;-83
2022/01/28 04:34:11;;;;;;;1.70;0.98;;;0.80;99.90;;;;;;5095823;28;20036;-83
2022/01/28 04:36:47;;;;;;;3.17;0.80;;;0.90;99.90;;;;;;5113671;28;20041;-82
2022/01/28 04:39:27;;;;;;;5.50;2.15;;;1.20;99.90;;;;;;5112393;28;20483;-82
2022/01/28 04:44:53;;;;;;;3.70;2.25;;;1.20;99.90;;;;;;5112525;28;20035;-83
2022/01/28 04:47:35;;;;;;;6.32;3.53;;;1.10;99.90;;;;;;5093979;28;20023;-82
2022/01/28 04:55:32;;;;;;;4.93;2.83;;;0.90;99.90;;;;;;5113830;28;20031;-82
2022/01/28 04:58:32;;;;;;;3.50;2.50;;;0.90;99.90;;;;;;5113751;28;20399;-82
2022/01/28 05:29:19;;;;;;;3.55;1.50;;;1.00;99.90;;;;;;5116631;28;20432;-81
2022/01/28 05:31:46;;;;;;;4.40;2.80;;;0.90;99.90;;;;;;5116936;28;20038;-82
2022/01/28 05:34:12;;;;;;;3.25;1.70;;;1.00;99.90;;;;;;5116288;28;20031;-82
2022/01/28 05:36:38;;;;;;;5.65;1.92;;;0.90;99.90;;;;;;5115493;28;20073;-82
2022/01/28 05:39:04;;;;;;;4.22;1.88;;;0.90;99.90;;;;;;5094205;28;20422;-82
2022/01/28 05:41:30;;;;;;;27.27;9.98;;;0.80;99.90;;;;;;5110904;28;20102;-82
2022/01/28 05:43:56;;;;;;;10.07;4.28;;;0.80;99.90;;;;;;5116605;28;20402;-83
2022/01/28 05:46:22;;;;;;;3.92;1.63;;;0.70;99.90;;;;;;5098352;28;20036;-82
2022/01/28 05:48:48;;;;;;;7.30;3.45;;;0.70;99.90;;;;;;5116625;28;20030;-82
2022/01/28 05:51:14;;;;;;;4.32;2.88;;;0.70;99.90;;;;;;5098245;28;20032;-82
2022/01/28 05:53:39;;;;;;;3.22;2.22;;;0.80;99.90;;;;;;5115750;28;20023;-82
2022/01/28 05:56:05;;;;;;;3.90;1.95;;;0.80;99.90;;;;;;5116401;28;20515;-83
2022/01/28 05:58:31;;;;;;;3.28;1.92;;;0.80;99.90;;;;;;5116291;28;20055;-83
2022/01/28 06:00:56;;;;;;;3.95;2.00;;;0.70;99.90;;;;;;5116232;28;20039;-83
2022/01/28 06:03:22;;;;;;;7.50;3.60;;;0.70;99.90;;;;;;5115631;28;20445;-82
2022/01/28 06:05:48;;;;;;;6.25;3.58;;;0.70;99.90;;;;;;5115855;28;20028;-82
2022/01/28 06:08:15;;;;;;;6.78;2.65;;;0.70;99.90;;;;;;5116446;28;20032;-82
2022/01/28 06:10:41;;;;;;;4.20;2.22;;;0.80;99.90;;;;;;5116335;28;20035;-83
2022/01/28 06:13:07;;;;;;;4.32;1.65;;;0.90;99.90;;;;;;5115580;28;20036;-82
2022/01/28 06:15:33;;;;;;;3.63;2.08;;;0.90;99.90;;;;;;5116134;28;20031;-83
2022/01/28 06:18:00;;;;;;;3.13;1.75;;;0.90;99.90;;;;;;5116184;28;20415;-83
2022/01/28 06:20:25;;;;;;;5.45;2.20;;;0.80;99.90;;;;;;5115991;28;20027;-83
2022/01/28 06:22:51;;;;;;;3.55;2.17;;;0.80;99.90;;;;;;5116092;28;20024;-82
2022/01/28 06:25:17;;;;;;;2.65;1.60;;;0.80;99.90;;;;;;5093869;28;20552;-82
2022/01/28 06:27:43;;;;;;;4.63;1.95;;;0.70;99.90;;;;;;5094080;28;20062;-82
2022/01/28 06:30:10;;;;;;;3.08;1.88;;;0.70;99.90;;;;;;5093933;28;20056;-82
2022/01/28 06:32:37;;;;;;;3.25;1.63;;;0.70;99.90;;;;;;5095743;28;20024;-82
2022/01/28 06:35:09;;;;;;;5.05;2.38;;;0.70;99.90;;;;;;5095397;28;20024;-82
2022/01/28 06:37:37;;;;;;;10.23;5.65;;;0.80;99.90;;;;;;5095562;28;20028;-83
2022/01/28 06:40:05;;;;;;;5.15;3.20;;;0.90;99.90;;;;;;5096006;28;20032;-83
2022/01/28 06:42:30;;;;;;;3.70;1.90;;;0.90;99.90;;;;;;5095312;28;20031;-82
2022/01/28 06:44:56;;;;;;;2.55;1.20;;;0.90;99.90;;;;;;5094907;28;20159;-82
2022/01/28 06:47:22;;;;;;;1.48;0.82;;;0.90;99.90;;;;;;5094922;28;20063;-82
2022/01/28 06:49:48;;;;;;;2.40;0.80;;;0.90;99.90;;;;;;5095292;28;20036;-83
2022/01/28 06:52:13;;;;;;;2.92;1.00;;;0.80;99.90;;;;;;5093477;28;20032;-83
2022/01/28 06:54:39;;;;;;;4.47;2.00;;;0.80;99.90;;;;;;5076602;28;20039;-83
2022/01/28 06:57:05;;;;;;;3.75;2.03;;;0.80;99.90;;;;;;5094881;28;20031;-82
2022/01/28 06:59:30;;;;;;;5.25;2.47;;;0.80;99.90;;;;;;5093528;28;20547;-82
2022/01/28 07:01:56;;;;;;;4.20;1.92;;;0.80;99.90;;;;;;5094967;28;20499;-83
2022/01/28 07:04:22;;;;;;;4.50;2.15;;;0.80;99.90;;;;;;5093338;28;20028;-83
2022/01/28 07:06:48;;;;;;;4.20;2.28;;;0.80;99.90;;;;;;5094895;28;20474;-83
2022/01/28 07:09:13;;;;;;;5.35;2.10;;;0.70;99.90;;;;;;5094984;28;20077;-82
2022/01/28 07:11:39;;;;;;;3.88;1.83;;;0.70;99.90;;;;;;5095264;28;20031;-83
2022/01/28 07:14:05;;;;;;;3.70;1.60;;;0.70;99.90;;;;;;5093369;28;20032;-82
2022/01/28 07:16:31;;;;;;;4.50;1.90;;;0.70;99.90;;;;;;5094537;28;20052;-83
2022/01/28 07:18:57;;;;;;;6.03;2.92;;;0.70;99.90;;;;;;5093381;28;20455;-83
2022/01/28 07:21:23;;;;;;;5.65;2.08;;;0.80;99.90;;;;;;5093362;28;20062;-83
2022/01/28 07:23:48;;;;;;;3.30;1.83;;;0.80;99.90;;;;;;5092842;28;20067;-83
2022/01/28 07:26:14;;;;;;;5.57;1.90;;;0.90;99.90;;;;;;5093160;28;20115;-83
2022/01/28 07:28:41;;;;;;;3.03;1.40;;;1.00;99.90;;;;;;5107998;28;20483;-83
2022/01/28 07:31:09;;;;;;;3.85;1.45;;;1.00;99.90;;;;;;5114554;28;20028;-83
2022/01/28 07:33:35;;;;;;;1.80;1.02;;;0.90;99.90;;;;;;5096352;28;20036;-83
2022/01/28 07:36:01;;;;;;;2.47;1.17;;;0.90;99.90;;;;;;5114571;28;20084;-83
2022/01/28 07:38:27;;;;;;;2.75;1.30;;;0.80;99.90;;;;;;5114718;28;20142;-83
2022/01/28 07:40:53;;;;;;;3.00;1.38;;;0.80;99.90;;;;;;5114528;28;20032;-83
2022/01/28 07:43:18;;;;;;;2.63;1.30;;;0.80;99.90;;;;;;5095885;28;20047;-83
2022/01/28 07:45:44;;;;;;;1.95;1.10;;;0.70;99.90;;;;;;5114826;28;20395;-83
2022/01/28 07:48:10;;;;;;;3.65;1.73;;;0.70;99.90;;;;;;5113619;28;20027;-84
2022/01/28 07:50:35;;;;;;;3.80;1.85;;;0.70;99.90;;;;;;5113482;28;20088;-83
2022/01/28 07:53:03;;;;;;;3.58;1.60;;;0.70;99.90;;;;;;5092165;28;20542;-84
2022/01/28 07:55:29;;;;;;;2.95;1.42;;;0.70;99.90;;;;;;5092571;28;20159;-83
2022/01/28 07:57:54;;;;;;;2.60;1.02;;;0.60;99.90;;;;;;5093732;28;20489;-83
2022/01/28 08:00:26;;;;;;;4.30;2.50;;;0.70;99.90;;;;;;5093819;28;20036;-83
2022/01/28 08:02:51;;;;;;;3.45;1.42;;;0.80;99.90;;;;;;5093933;28;20060;-83
2022/01/28 08:05:17;;;;;;;1.70;1.10;;;0.80;99.90;;;;;;5093549;28;20071;-83
2022/01/28 08:07:44;;;;;;;3.53;1.23;;;0.90;99.90;;;;;;5092717;28;20028;-83
2022/01/28 08:10:10;;;;;;;3.75;1.40;;;0.90;99.90;;;;;;5097593;28;20069;-83
2022/01/28 08:12:51;;;;;;;4.82;2.13;;;1.00;99.90;;;;;;5113970;28;20027;-83
2022/01/28 08:15:18;;;;;;;5.88;1.70;;;1.00;99.90;;;;;;5113501;28;20027;-83
2022/01/28 08:17:45;;;;;;;2.90;1.63;;;1.10;99.90;;;;;;5113872;28;20036;-83
2022/01/28 08:20:12;;;;;;;3.08;1.75;;;1.10;99.90;;;;;;5113833;28;20035;-83
2022/01/28 08:22:57;;;;;;;4.95;2.40;;;1.10;99.90;;;;;;5095501;28;20092;-83
2022/01/28 08:25:24;;;;;;;6.43;2.63;;;1.10;99.90;;;;;;5113697;28;20027;-83
2022/01/28 08:27:51;;;;;;;5.78;3.05;;;1.10;99.90;;;;;;5095546;28;20030;-83
2022/01/28 08:30:19;;;;;;;3.30;2.20;;;1.10;99.90;;;;;;5095439;28;20036;-83
2022/01/28 08:32:45;;;;;;;4.57;1.80;;;1.00;99.90;;;;;;5091797;28;20059;-83
2022/01/28 08:35:12;;;;;;;2.88;1.00;;;1.00;99.90;;;;;;5095264;28;20028;-83
2022/01/28 08:37:38;;;;;;;2.95;1.27;;;1.00;99.90;;;;;;5097414;28;20388;-83
2022/01/28 08:40:05;;;;;;;5.05;1.27;;;1.00;99.90;;;;;;5097498;28;20024;-83
2022/01/28 08:42:31;;;;;;;2.20;1.20;;;0.90;99.90;;;;;;5096625;28;20035;-83
2022/01/28 08:44:57;;;;;;;2.55;1.48;;;0.90;99.90;;;;;;5095959;28;20050;-83
2022/01/28 08:47:23;;;;;;;3.25;1.50;;;0.90;99.90;;;;;;5095889;28;20395;-83
2022/01/28 08:49:49;;;;;;;7.95;3.92;;;0.90;99.90;;;;;;5097283;28;20035;-83
2022/01/28 08:52:15;;;;;;;16.58;7.75;;;0.90;99.90;;;;;;5097290;28;20468;-83
2022/01/28 08:54:41;;;;;;;11.65;5.00;;;0.90;99.90;;;;;;5097157;28;20036;-83
2022/01/28 08:57:08;;;;;;;10.50;4.90;;;0.90;99.90;;;;;;5097102;28;20066;-83
2022/01/28 08:59:33;;;;;;;10.23;4.78;;;0.90;99.90;;;;;;5095880;28;20067;-83
2022/01/28 09:01:59;;;;;;;9.80;4.35;;;0.90;99.90;;;;;;5095801;28;20060;-83
2022/01/28 09:04:25;;;;;;;11.18;4.57;;;0.80;99.90;;;;;;5095612;28;20143;-83
2022/01/28 09:06:50;;;;;;;8.55;4.75;;;0.80;99.90;;;;;;5096986;28;20024;-83
2022/01/28 09:09:19;;;;;;;7.63;4.07;;;0.80;99.90;;;;;;5095473;28;20028;-83
2022/01/28 09:12:04;;;;;;;7.70;4.45;;;0.80;99.90;;;;;;5096851;28;20031;-83
2022/01/28 09:14:30;;;;;;;4.85;2.80;;;0.80;99.90;;;;;;5096718;28;20032;-83
2022/01/28 09:16:56;;;;;;;3.75;2.05;;;0.80;99.90;;;;;;5097026;28;20040;-83
2022/01/28 09:19:22;;;;;;;4.50;2.30;;;0.80;99.90;;;;;;5095422;28;20032;-83
2022/01/28 09:21:48;;;;;;;4.60;2.47;;;0.80;99.90;;;;;;5095443;28;20043;-83
2022/01/28 09:24:14;;;;;;;6.35;3.00;;;0.80;99.90;;;;;;5096564;28;20028;-83
2022/01/28 09:26:39;;;;;;;4.75;2.45;;;0.80;99.90;;;;;;5096906;28;20052;-83
2022/01/28 09:29:05;;;;;;;4.97;2.58;;;0.80;99.90;;;;;;5098255;28;20127;-83
2022/01/28 09:31:31;;;;;;;5.07;3.45;;;0.80;99.90;;;;;;5094702;28;20504;-84
2022/01/28 09:33:56;;;;;;;5.13;2.65;;;0.80;99.90;;;;;;5094807;28;20052;-83
2022/01/28 09:36:22;;;;;;;2.92;1.73;;;0.80;99.90;;;;;;5094940;28;20035;-84
2022/01/28 09:38:49;;;;;;;4.18;1.92;;;0.80;99.90;;;;;;5095323;28;20042;-84
2022/01/28 09:41:16;;;;;;;2.83;1.25;;;0.90;99.90;;;;;;5094974;28;20032;-84
2022/01/28 09:43:46;;;;;;;3.22;1.35;;;0.90;99.90;;;;;;5094750;28;20530;-84
2022/01/28 09:46:12;;;;;;;3.28;1.63;;;0.90;99.90;;;;;;5094442;28;20115;-84
2022/01/28 09:48:38;;;;;;;2.20;1.13;;;1.00;99.90;;;;;;5094936;28;20057;-84
2022/01/28 09:51:05;;;;;;;2.17;1.02;;;0.90;99.90;;;;;;5113857;28;20093;-83
2022/01/28 09:53:30;;;;;;;2.10;1.10;;;1.00;99.90;;;;;;5098366;28;20403;-83
2022/01/28 09:55:57;;;;;;;2.95;1.10;;;1.00;99.90;;;;;;5116481;28;20028;-83
2022/01/28 09:58:24;;;;;;;1.95;1.10;;;1.00;99.90;;;;;;5116411;28;20024;-83
2022/01/28 10:00:50;;;;;;;3.83;1.55;;;1.10;99.90;;;;;;5116415;28;20049;-83
2022/01/28 10:03:18;;;;;;;5.32;2.17;;;1.10;99.90;;;;;;5116264;28;20051;-84
2022/01/28 10:05:50;;;;;;;4.03;1.65;;;1.20;99.90;;;;;;5098040;28;20400;-84
2022/01/28 10:08:27;;;;;;;3.65;1.40;;;1.20;99.90;;;;;;5116543;28;20110;-84
2022/01/28 10:11:10;;;;;;;2.40;1.55;;;1.20;99.90;;;;;;5097749;28;20487;-84
2022/01/28 10:13:45;;;;;;;3.40;1.88;;;1.20;99.90;;;;;;5115931;28;20024;-83
2022/01/28 10:16:16;;;;;;;2.97;2.03;;;1.10;99.90;;;;;;5097752;28;20028;-83
2022/01/28 10:19:09;;;;;;;3.42;1.27;;;1.10;99.90;;;;;;5097716;28;20027;-83
2022/01/28 10:21:39;;;;;;;6.57;1.65;;;1.10;99.90;;;;;;5112149;28;20538;-83
2022/01/28 10:24:27;;;;;;;3.55;1.60;;;1.20;99.90;;;;;;5097465;28;20518;-83
2022/01/28 10:26:55;;;;;;;4.70;2.00;;;1.10;99.90;;;;;;5116135;28;20027;-84
2022/01/28 10:29:32;;;;;;;6.25;2.47;;;1.10;99.90;;;;;;5115724;28;20066;-84
2022/01/28 10:31:59;;;;;;;5.18;2.53;;;1.10;99.90;;;;;;5115702;28;20514;-83
2022/01/28 10:34:27;;;;;;;4.95;1.77;;;1.10;99.90;;;;;;5115555;28;20399;-83
2022/01/28 10:37:16;;;;;;;4.65;1.50;;;1.10;99.90;;;;;;5115527;28;20089;-83
2022/01/28 10:40:17;;;;;;;4.93;1.77;;;1.10;99.90;;;;;;5100893;28;20084;-83
2022/01/28 10:42:51;;;;;;;13.50;3.75;;;1.10;99.90;;;;;;5115622;28;20031;-83
2022/01/28 10:45:32;;;;;;;20.00;4.15;;;1.10;99.90;;;;;;5115509;28;20448;-83
2022/01/28 10:47:59;;;;;;;7.78;1.95;;;1.10;99.90;;;;;;5115430;28;20537;-84
2022/01/28 10:50:36;;;;;;;2.17;1.13;;;1.10;99.90;;;;;;5115241;28;20065;-84
2022/01/28 10:53:05;;;;;;;4.13;1.30;;;1.20;99.90;;;;;;5096932;28;20030;-84
2022/01/28 10:55:35;;;;;;;2.58;1.10;;;1.30;99.90;;;;;;5115230;28;20042;-84
2022/01/28 10:58:10;;;;;;;4.45;1.38;;;1.50;99.90;;;;;;5114642;28;20067;-84
2022/01/28 11:00:38;;;;;;;2.53;1.30;;;1.60;99.90;;;;;;5096986;28;20085;-84
2022/01/28 11:03:07;;;;;;;3.28;1.10;;;1.70;99.90;;;;;;5115032;28;20391;-84
2022/01/28 11:05:35;;;;;;;5.28;1.75;;;1.80;99.90;;;;;;5096658;28;20032;-84
2022/01/28 11:08:03;;;;;;;5.47;2.22;;;1.80;99.90;;;;;;5115026;28;20519;-84
2022/01/28 11:10:29;;;;;;;10.90;2.95;;;1.80;99.90;;;;;;5096600;28;20070;-85
2022/01/28 11:12:57;;;;;;;5.97;1.92;;;1.90;99.90;;;;;;5096591;28;20051;-84
2022/01/28 11:15:23;;;;;;;3.45;1.30;;;1.80;99.90;;;;;;5115235;28;20036;-84
2022/01/28 11:17:50;;;;;;;5.30;2.30;;;1.80;99.90;;;;;;5096543;28;20036;-84
2022/01/28 11:20:21;;;;;;;5.25;2.10;;;1.80;99.90;;;;;;5096540;28;20031;-84
2022/01/28 11:23:10;;;;;;;4.18;1.50;;;1.80;99.90;;;;;;5096489;28;20126;-84
2022/01/28 11:26:19;;;;;;;5.38;2.72;;;1.90;99.90;;;;;;5047789;28;20039;-85
2022/01/28 11:28:48;;;;;;;4.95;1.65;;;1.80;99.90;;;;;;5049718;28;20032;-85
2022/01/28 11:31:14;;;;;;;4.10;2.28;;;1.80;99.90;;;;;;5096433;28;20032;-85
2022/01/28 11:33:50;;;;;;;4.85;1.27;;;1.80;99.90;;;;;;5096248;28;20031;-85
2022/01/28 11:36:34;;;;;;;2.47;1.10;;;1.80;99.90;;;;;;5096149;28;20080;-85
2022/01/28 11:39:28;;;;;;;1.92;0.90;;;1.80;99.90;;;;;;5096049;28;20027;-85
2022/01/28 11:42:05;;;;;;;3.03;0.90;;;1.80;99.90;;;;;;5096120;28;20531;-85
2022/01/28 11:44:50;;;;;;;3.13;1.10;;;1.90;99.90;;;;;;5095873;28;20054;-86
2022/01/28 11:47:41;;;;;;;3.30;1.40;;;1.90;99.90;;;;;;5096075;28;20059;-85
2022/01/28 11:50:12;;;;;;;2.90;1.10;;;1.90;99.90;;;;;;5095967;28;20499;-85
2022/01/28 11:52:47;;;;;;;2.90;1.17;;;1.90;99.90;;;;;;5114836;28;20055;-85
2022/01/28 11:55:20;;;;;;;2.72;1.13;;;1.80;99.90;;;;;;5114214;28;20028;-85
2022/01/28 11:58:22;;;;;;;3.15;1.33;;;1.80;99.90;;;;;;5110189;28;20032;-84
2022/01/28 12:00:47;;;;;;;;;;;1.90;99.90;;;;;;5012213;28;20086;-85
2022/01/28 12:03:23;;;;;;;2.40;1.40;;;2.00;99.90;;;;;;5075398;28;19933;-84
2022/01/28 12:06:07;;;;;;;2.22;1.20;;;1.90;99.90;;;;;;5095771;28;20039;-84
2022/01/28 12:08:33;;;;;;;1.52;0.80;;;1.90;99.90;;;;;;5114341;28;20031;-85
2022/01/28 12:11:02;;;;;;;3.80;1.10;;;1.90;99.90;;;;;;5113905;28;20085;-85
2022/01/28 12:14:14;;;;;;;2.90;0.80;;;1.90;99.90;;;;;;5095599;28;20031;-85
2022/01/28 12:16:42;;;;;;;1.95;1.00;;;1.80;99.90;;;;;;5113550;28;20612;-85
2022/01/28 12:19:18;;;;;;;3.17;1.50;;;1.80;99.90;;;;;;5112701;28;20030;-84
2022/01/28 12:22:05;;;;;;;2.58;1.40;;;1.70;99.90;;;;;;5095565;28;20024;-85
2022/01/28 12:24:33;;;;;;;3.17;1.42;;;1.60;99.90;;;;;;5095521;28;20032;-85
2022/01/28 12:27:00;;;;;;;2.35;1.23;;;1.50;99.90;;;;;;5095967;28;20083;-85
2022/01/28 12:29:32;;;;;;;5.72;1.40;;;1.50;99.90;;;;;;5095231;28;20123;-85
2022/01/28 12:31:59;;;;;;;2.72;1.10;;;1.40;99.90;;;;;;5095422;28;20031;-85
2022/01/28 12:34:25;;;;;;;2.38;1.33;;;1.40;99.90;;;;;;5095445;28;20066;-86
2022/01/28 12:36:52;;;;;;;6.03;2.50;;;1.50;99.90;;;;;;5113594;28;20032;-85
2022/01/28 12:39:32;;;;;;;8.68;3.33;;;1.60;99.90;;;;;;5114060;28;20036;-86
2022/01/28 12:42:10;;;;;;;11.07;4.85;;;1.80;99.90;;;;;;5095069;28;20403;-85
2022/01/28 12:44:37;;;;;;;10.65;5.45;;;2.00;99.90;;;;;;5090375;28;20086;-85
2022/01/28 12:47:06;;;;;;;10.75;6.00;;;2.10;99.90;;;;;;5094360;28;20081;-85
2022/01/28 12:49:34;;;;;;;2.92;1.30;;;2.20;99.90;;;;;;5111399;28;20028;-85
2022/01/28 12:52:03;;;;;;;5.70;2.53;;;2.30;99.90;;;;;;5093123;28;20511;-85
2022/01/28 12:54:30;;;;;;;6.63;3.42;;;2.40;99.90;;;;;;5091537;28;20046;-85
2022/01/28 12:56:55;;;;;;;11.55;5.95;;;2.40;99.90;;;;;;5093617;28;20124;-86
2022/01/28 12:59:21;;;;;;;14.15;7.45;;;2.40;99.90;;;;;;5090179;28;20067;-86
2022/01/28 13:01:54;;;;;;;23.30;14.70;;;2.40;99.90;;;;;;5093295;28;20047;-86
2022/01/28 13:04:23;;;;;;;15.13;8.23;;;2.30;99.90;;;;;;5093135;28;20036;-85
2022/01/28 13:09:16;;;;;;;6.80;4.03;;;2.20;99.90;;;;;;5112971;28;20040;-84
2022/01/28 13:11:45;;;;;;;7.60;3.78;;;2.20;99.90;;;;;;5112801;28;20387;-86
2022/01/28 13:14:15;;;;;;;9.25;3.65;;;2.10;99.90;;;;;;5094689;28;20039;-86
2022/01/28 13:16:46;;;;;;;4.25;2.15;;;2.00;99.90;;;;;;5112546;28;20036;-86
2022/01/28 13:19:14;;;;;;;3.90;2.03;;;1.90;99.90;;;;;;5094495;28;20126;-86
2022/01/28 13:21:42;;;;;;;5.07;2.20;;;1.80;99.90;;;;;;5115084;28;20028;-85
2022/01/28 13:24:14;;;;;;;4.60;2.10;;;1.80;99.90;;;;;;5115910;28;20027;-85
2022/01/28 13:27:07;;;;;;;7.40;2.40;;;1.80;99.90;;;;;;5097707;28;20055;-85
2022/01/28 13:29:43;;;;;;;4.63;2.30;;;1.80;99.90;;;;;;5097593;28;20077;-85
2022/01/28 13:32:23;;;;;;;4.47;2.33;;;1.80;99.90;;;;;;5097501;28;20036;-85
2022/01/28 13:34:54;;;;;;;4.30;2.10;;;1.90;99.90;;;;;;5115692;28;20502;-85
2022/01/28 13:37:42;;;;;;;2.90;1.67;;;1.90;99.90;;;;;;5097369;28;20446;-85
2022/01/28 13:40:18;;;;;;;4.70;1.98;;;1.90;99.90;;;;;;5115579;28;20093;-85
2022/01/28 13:45:47;;;;;;;5.78;2.22;;;1.90;99.90;;;;;;5111328;27;20381;-67
2022/01/28 13:48:20;;;;;;;3.22;1.65;;;1.80;99.90;;;;;;5111302;28;20026;-67
2022/01/28 13:50:49;;;;;;;2.47;1.60;;;1.70;99.90;;;;;;5110999;28;20107;-68
2022/01/28 13:54:10;;;;;;;3.00;1.67;;;1.50;99.90;;;;;;5111118;28;20065;-68
2022/01/28 13:56:06;;;;;;;4.57;1.92;;;1.50;99.90;;;;;;5110760;28;20028;-68
2022/01/28 13:58:52;;;;;;;5.78;2.30;;;1.40;99.90;;;;;;5111606;28;20063;-66
2022/01/28 14:01:20;;;;;;;5.18;2.13;;;1.50;99.90;;;;;;5090879;28;20016;-67
2022/01/28 14:03:57;;;;;;;5.90;2.38;;;1.50;99.90;;;;;;5090514;28;20056;-66
2022/01/28 14:06:31;;;;;;;6.13;2.70;;;1.40;99.90;;;;;;5090794;28;20141;-67
2022/01/28 14:09:13;;;;;;;10.27;4.43;;;1.40;99.90;;;;;;5090835;28;20032;-66
2022/01/28 14:11:44;;;;;;;13.55;4.30;;;1.40;99.90;;;;;;5090443;28;20020;-66
2022/01/28 14:14:33;;;;;;;5.90;2.53;;;1.50;99.90;;;;;;5090655;28;20047;-66
2022/01/28 14:17:08;;;;;;;4.00;1.73;;;1.50;99.90;;;;;;5090707;28;20044;-67
2022/01/28 14:19:36;;;;;;;3.22;1.17;;;1.60;99.90;;;;;;5089087;28;20037;-67
2022/01/28 14:22:02;;;;;;;2.78;1.00;;;1.60;99.90;;;;;;5089954;28;20027;-67
2022/01/28 14:24:35;;;;;;;2.22;1.00;;;1.60;99.90;;;;;;5090176;28;20441;-67
2022/01/28 14:32:04;;;;;;;9.30;2.92;;;1.70;99.90;;;;;;5090639;28;20028;-67
2022/01/28 14:34:30;;;;;;;6.38;2.53;;;1.70;99.90;;;;;;5090040;28;20028;-67
2022/01/28 14:36:56;;;;;;;5.22;2.20;;;1.80;99.90;;;;;;5089799;28;20097;-66
2022/01/28 14:39:21;;;;;;;4.70;2.42;;;1.70;99.90;;;;;;5090000;28;20024;-67
2022/01/28 14:41:50;;;;;;;3.65;2.50;;;1.60;99.90;;;;;;5090016;28;20090;-67
2022/01/28 14:44:15;;;;;;;6.25;2.17;;;1.60;99.90;;;;;;5089811;28;20078;-67
2022/01/28 14:46:41;;;;;;;7.40;2.88;;;1.60;99.90;;;;;;5089819;28;20020;-67